createdAt,value
2019-06-01T00:01:48.858Z,101868.48
2019-06-01T00:04:18.834Z,101863.26
2019-06-01T00:06:49.026Z,101869.30
2019-06-01T00:09:19.227Z,101861.09
2019-06-01T00:11:49.658Z,101859.69
2019-06-01T00:14:19.763Z,101859.69
2019-06-01T00:16:50.413Z,101868.31
2019-06-01T00:19:20.514Z,101869.53
2019-06-01T00:21:50.455Z,101869.94
2019-06-01T00:24:20.418Z,101867.23
2019-06-01T00:26:50.327Z,101859.47
2019-06-01T00:29:20.277Z,101863.85
2019-06-01T00:31:50.247Z,101871.16
2019-06-01T00:34:20.238Z,101856.91
2019-06-01T00:36:50.223Z,101861.50
2019-06-01T00:39:20.080Z,101864.20
2019-06-01T00:41:50.280Z,101861.41
2019-06-01T00:44:20.133Z,101860.65
2019-06-01T00:46:50.767Z,101859.79
2019-06-01T00:49:20.818Z,101864.29
2019-06-01T00:51:52.140Z,101861.83
2019-06-01T00:54:22.487Z,101857.22
2019-06-01T00:56:53.726Z,101862.53
2019-06-01T00:59:23.816Z,101856.72
2019-06-01T01:01:54.232Z,101859.91
2019-06-01T01:04:24.255Z,101863.51
2019-06-01T01:06:54.824Z,101866.61
2019-06-01T01:09:24.679Z,101871.23
2019-06-01T01:11:55.324Z,101858.16
2019-06-01T01:14:25.237Z,101855.00
2019-06-01T01:16:55.782Z,101856.39
2019-06-01T01:19:25.714Z,101860.00
2019-06-01T01:21:56.470Z,101862.20
2019-06-01T01:24:26.318Z,101865.39
2019-06-01T01:26:56.782Z,101868.94
2019-06-01T01:29:27.002Z,101861.88
2019-06-01T01:31:57.363Z,101862.73
2019-06-01T01:34:27.312Z,101854.80
2019-06-01T01:36:58.087Z,101853.05
2019-06-01T01:39:28.003Z,101855.22
2019-06-01T01:41:58.632Z,101851.22
2019-06-01T01:44:28.550Z,101852.42
2019-06-01T01:46:59.059Z,101850.59
2019-06-01T01:49:28.991Z,101853.13
2019-06-01T01:51:59.548Z,101851.38
2019-06-01T01:54:29.446Z,101848.34
2019-06-01T01:56:59.344Z,101848.42
2019-06-01T01:59:29.278Z,101843.23
2019-06-01T02:01:59.153Z,101847.27
2019-06-01T02:04:29.080Z,101847.75
2019-06-01T02:07:00.193Z,101842.38
2019-06-01T02:09:30.302Z,101840.13
2019-06-01T02:12:00.181Z,101845.88
2019-06-01T02:14:30.075Z,101834.48
2019-06-01T02:17:00.342Z,101840.52
2019-06-01T02:19:30.251Z,101832.51
2019-06-01T02:22:00.757Z,101834.05
2019-06-01T02:24:30.750Z,101833.76
2019-06-01T02:27:01.290Z,101827.24
2019-06-01T02:29:31.335Z,101828.03
2019-06-01T02:32:01.917Z,101828.59
2019-06-01T02:34:32.852Z,101826.31
2019-06-01T02:37:04.433Z,101824.45
2019-06-01T02:39:34.516Z,101828.62
2019-06-01T02:42:05.458Z,101825.66
2019-06-01T02:44:35.533Z,101820.73
2019-06-01T02:47:06.337Z,101824.87
2019-06-01T02:49:36.364Z,101818.20
2019-06-01T02:52:06.852Z,101822.57
2019-06-01T02:54:36.755Z,101815.03
2019-06-01T02:57:06.688Z,101815.24
2019-06-01T02:59:36.599Z,101816.89
2019-06-01T03:02:11.887Z,101817.72
2019-06-01T03:04:38.641Z,101816.52
2019-06-01T03:07:11.474Z,101821.19
2019-06-01T03:09:42.232Z,101817.82
2019-06-01T03:12:15.391Z,101823.98
2019-06-01T03:14:49.432Z,101823.12
2019-06-01T03:17:22.835Z,101828.38
2019-06-01T03:19:57.071Z,101821.33
2019-06-01T03:22:28.568Z,101824.42
2019-06-01T03:25:03.850Z,101823.32
2019-06-01T03:27:36.349Z,101821.91
2019-06-01T03:30:12.213Z,101821.43
2019-06-01T03:32:41.322Z,101819.70
2019-06-01T03:35:11.264Z,101818.38
2019-06-01T03:37:41.131Z,101816.92
2019-06-01T03:40:23.247Z,101817.61
2019-06-01T03:42:42.834Z,101813.45
2019-06-01T03:45:13.338Z,101815.70
2019-06-01T03:47:43.839Z,101811.89
2019-06-01T03:50:13.788Z,101813.76
2019-06-01T03:52:43.659Z,101819.20
2019-06-01T03:55:13.685Z,101816.92
2019-06-01T03:57:57.991Z,101810.48
2019-06-01T04:00:38.410Z,101810.84
2019-06-01T04:03:21.182Z,101816.18
2019-06-01T04:05:58.797Z,101817.22
2019-06-01T04:08:40.212Z,101820.53
2019-06-01T04:11:22.822Z,101814.63
2019-06-01T04:13:59.297Z,101816.31
2019-06-01T04:16:37.611Z,101820.86
2019-06-01T04:19:28.660Z,101819.47
2019-06-01T04:22:04.116Z,101818.98
2019-06-01T04:24:38.546Z,101822.98
2019-06-01T04:27:13.509Z,101815.36
2019-06-01T04:30:20.242Z,101815.56
2019-06-01T04:32:49.262Z,101823.30
2019-06-01T04:35:15.401Z,101823.52
2019-06-01T04:37:49.383Z,101821.30
2019-06-01T04:40:27.795Z,101822.39
2019-06-01T04:43:07.876Z,101815.12
2019-06-01T04:45:51.763Z,101812.59
2019-06-01T04:48:42.115Z,101819.98
2019-06-01T04:51:13.353Z,101820.17
2019-06-01T04:53:43.380Z,101827.36
2019-06-01T04:56:13.438Z,101829.16
2019-06-01T04:58:43.371Z,101824.00
2019-06-01T05:01:13.359Z,101827.81
2019-06-01T05:03:43.260Z,101829.01
2019-06-01T05:06:13.463Z,101834.69
2019-06-01T05:08:43.378Z,101830.82
2019-06-01T05:11:13.602Z,101839.22
2019-06-01T05:13:43.483Z,101826.28
2019-06-01T05:16:14.886Z,101829.38
2019-06-01T05:18:45.162Z,101821.77
2019-06-01T05:21:15.291Z,101828.95
2019-06-01T05:23:45.405Z,101826.80
2019-06-01T05:26:15.323Z,101829.09
2019-06-01T05:28:45.186Z,101842.41
2019-06-01T05:31:24.295Z,101834.40
2019-06-01T05:33:46.724Z,101839.80
2019-06-01T05:36:16.604Z,101832.70
2019-06-01T05:38:46.495Z,101837.42
2019-06-01T05:41:16.709Z,101837.44
2019-06-01T05:43:46.606Z,101842.61
2019-06-01T05:46:16.490Z,101837.43
2019-06-01T05:48:46.678Z,101840.97
2019-06-01T05:51:18.486Z,101842.72
2019-06-01T05:53:48.234Z,101843.81
2019-06-01T05:56:18.952Z,101843.60
2019-06-01T05:58:48.950Z,101839.99
2019-06-01T06:01:19.670Z,101847.33
2019-06-01T06:03:49.613Z,101844.99
2019-06-01T06:06:19.935Z,101844.48
2019-06-01T06:08:49.842Z,101845.00
2019-06-01T06:11:19.721Z,101843.14
2019-06-01T06:13:49.601Z,101840.57
2019-06-01T06:16:20.862Z,101838.88
2019-06-01T06:18:51.146Z,101847.37
2019-06-01T06:21:22.294Z,101849.10
2019-06-01T06:23:52.322Z,101856.28
2019-06-01T06:26:22.834Z,101853.55
2019-06-01T06:28:52.895Z,101861.13
2019-06-01T06:31:23.291Z,101848.38
2019-06-01T06:33:56.960Z,101842.02
2019-06-01T06:36:25.098Z,101846.98
2019-06-01T06:38:54.983Z,101842.86
2019-06-01T06:41:24.922Z,101847.63
2019-06-01T06:43:54.805Z,101844.30
2019-06-01T06:46:24.952Z,101854.47
2019-06-01T06:48:54.876Z,101845.02
2019-06-01T06:51:25.545Z,101854.37
2019-06-01T06:53:55.618Z,101853.60
2019-06-01T06:56:26.165Z,101847.05
2019-06-01T06:58:56.085Z,101850.37
2019-06-01T07:01:26.982Z,101844.22
2019-06-01T07:04:11.791Z,101846.91
2019-06-01T07:06:28.823Z,101847.51
2019-06-01T07:08:58.724Z,101851.94
2019-06-01T07:11:29.450Z,101845.95
2019-06-01T07:13:59.378Z,101847.13
2019-06-01T07:16:29.270Z,101847.68
2019-06-01T07:18:59.362Z,101839.23
2019-06-01T07:21:29.279Z,101843.16
2019-06-01T07:23:59.183Z,101846.61
2019-06-01T07:26:29.067Z,101841.36
2019-06-01T07:28:59.128Z,101841.75
2019-06-01T07:31:29.002Z,101841.91
2019-06-01T07:33:58.917Z,101846.13
2019-06-01T07:36:28.824Z,101840.41
2019-06-01T07:38:58.719Z,101837.59
2019-06-01T07:41:28.900Z,101843.56
2019-06-01T07:43:59.217Z,101839.45
2019-06-01T07:46:29.136Z,101841.30
2019-06-01T07:48:59.031Z,101837.59
2019-06-01T07:51:29.638Z,101843.83
2019-06-01T07:53:59.601Z,101841.02
2019-06-01T07:56:29.466Z,101849.00
2019-06-01T07:58:59.385Z,101843.66
2019-06-01T08:01:30.935Z,101845.51
2019-06-01T08:04:00.882Z,101855.75
2019-06-01T08:06:32.630Z,101850.81
2019-06-01T08:09:02.384Z,101850.14
2019-06-01T08:11:34.676Z,101847.94
2019-06-01T08:14:04.121Z,101835.55
2019-06-01T08:16:33.986Z,101843.95
2019-06-01T08:19:03.902Z,101850.23
2019-06-01T08:21:33.889Z,101851.77
2019-06-01T08:24:03.873Z,101852.59
2019-06-01T08:26:33.789Z,101840.23
2019-06-01T08:29:03.865Z,101842.34
2019-06-01T08:31:33.806Z,101840.70
2019-06-01T08:34:03.774Z,101834.47
2019-06-01T08:36:34.066Z,101842.69
2019-06-01T08:39:05.785Z,101833.63
2019-06-01T08:41:35.748Z,101826.45
2019-06-01T08:44:06.269Z,101831.80
2019-06-01T08:46:36.162Z,101828.17
2019-06-01T08:49:06.152Z,101826.39
2019-06-01T08:51:36.119Z,101832.08
2019-06-01T08:54:06.247Z,101823.60
2019-06-01T08:56:36.147Z,101811.84
2019-06-01T08:59:06.367Z,101814.57
2019-06-01T09:01:36.266Z,101814.87
2019-06-01T09:04:06.382Z,101814.55
2019-06-01T09:06:36.269Z,101805.43
2019-06-01T09:09:11.516Z,101802.42
2019-06-01T09:11:40.011Z,101792.15
2019-06-01T09:14:10.127Z,101802.01
2019-06-01T09:16:40.254Z,101802.16
2019-06-01T09:19:11.321Z,101791.12
2019-06-01T09:21:41.792Z,101789.48
2019-06-01T09:24:11.735Z,101789.70
2019-06-01T09:26:41.745Z,101791.81
2019-06-01T09:29:11.672Z,101795.23
2019-06-01T09:31:41.637Z,101794.29
2019-06-01T09:34:11.613Z,101793.83
2019-06-01T09:36:41.531Z,101788.91
2019-06-01T09:39:11.525Z,101796.41
2019-06-01T09:41:41.481Z,101790.63
2019-06-01T09:44:11.429Z,101789.75
2019-06-01T09:46:41.376Z,101786.67
2019-06-01T09:49:11.470Z,101783.35
2019-06-01T09:51:41.508Z,101785.06
2019-06-01T09:54:11.571Z,101785.04
2019-06-01T09:56:41.575Z,101779.52
2019-06-01T09:59:11.500Z,101782.82
2019-06-01T10:01:41.462Z,101782.23
2019-06-01T10:04:11.462Z,101779.34
2019-06-01T10:06:41.359Z,101783.31
2019-06-01T10:09:11.358Z,101779.84
2019-06-01T10:11:42.399Z,101775.87
2019-06-01T10:14:12.328Z,101770.98
2019-06-01T10:16:43.160Z,101768.08
2019-06-01T10:19:13.242Z,101761.09
2019-06-01T10:21:43.189Z,101763.77
2019-06-01T10:24:13.167Z,101761.20
2019-06-01T10:26:43.194Z,101768.21
2019-06-01T10:29:13.226Z,101767.39
2019-06-01T10:31:43.224Z,101756.70
2019-06-01T10:34:13.310Z,101753.92
2019-06-01T10:36:43.253Z,101756.56
2019-06-01T10:39:13.222Z,101753.02
2019-06-01T10:41:43.106Z,101750.38
2019-06-01T10:44:13.021Z,101743.28
2019-06-01T10:46:42.927Z,101736.94
2019-06-01T10:49:12.850Z,101740.20
2019-06-01T10:51:42.755Z,101742.18
2019-06-01T10:54:12.647Z,101741.35
2019-06-01T10:56:42.776Z,101743.24
2019-06-01T10:59:12.776Z,101733.39
2019-06-01T11:01:42.851Z,101732.23
2019-06-01T11:04:12.869Z,101732.88
2019-06-01T11:06:48.151Z,101724.11
2019-06-01T11:09:14.495Z,101719.52
2019-06-01T11:11:44.399Z,101720.09
2019-06-01T11:14:14.283Z,101719.45
2019-06-01T11:16:44.319Z,101717.13
2019-06-01T11:19:14.213Z,101720.05
2019-06-01T11:21:44.231Z,101717.52
2019-06-01T11:24:14.128Z,101724.34
2019-06-01T11:26:44.280Z,101716.00
2019-06-01T11:29:14.191Z,101705.11
2019-06-01T11:31:44.273Z,101699.72
2019-06-01T11:34:14.220Z,101687.19
2019-06-01T11:37:03.512Z,101693.41
2019-06-01T11:39:15.956Z,101697.40
2019-06-01T11:41:45.864Z,101695.45
2019-06-01T11:44:15.818Z,101691.64
2019-06-01T11:46:46.261Z,101686.06
2019-06-01T11:49:20.382Z,101680.63
2019-06-01T11:51:47.900Z,101683.83
2019-06-01T11:54:17.793Z,101679.34
2019-06-01T11:56:47.726Z,101683.95
2019-06-01T11:59:21.136Z,101674.86
2019-06-01T12:01:49.581Z,101673.19
2019-06-01T12:04:19.633Z,101679.27
2019-06-01T12:06:49.600Z,101664.05
2019-06-01T12:09:19.486Z,101659.11
2019-06-01T12:11:50.133Z,101662.57
2019-06-01T12:14:20.067Z,101658.06
2019-06-01T12:16:49.954Z,101655.36
2019-06-01T12:19:19.881Z,101654.81
2019-06-01T12:21:49.855Z,101643.92
2019-06-01T12:24:24.882Z,101631.26
2019-06-01T12:26:51.455Z,101630.95
2019-06-01T12:29:21.444Z,101628.77
2019-06-01T12:31:51.422Z,101628.48
2019-06-01T12:34:21.392Z,101623.88
2019-06-01T12:36:51.302Z,101628.05
2019-06-01T12:39:21.187Z,101624.41
2019-06-01T12:41:51.845Z,101611.45
2019-06-01T12:44:21.782Z,101609.03
2019-06-01T12:46:52.968Z,101612.66
2019-06-01T12:49:23.021Z,101607.80
2019-06-01T12:51:53.176Z,101594.53
2019-06-01T12:54:23.975Z,101602.17
2019-06-01T12:56:53.866Z,101590.70
2019-06-01T12:59:23.879Z,101591.48
2019-06-01T13:01:53.817Z,101584.24
2019-06-01T13:04:23.740Z,101584.91
2019-06-01T13:06:54.184Z,101588.88
2019-06-01T13:09:24.333Z,101584.22
2019-06-01T13:11:54.330Z,101583.06
2019-06-01T13:14:24.237Z,101577.36
2019-06-01T13:17:06.011Z,101576.92
2019-06-01T13:19:25.867Z,101573.13
2019-06-01T13:21:56.115Z,101574.89
2019-06-01T13:24:27.749Z,101563.59
2019-06-01T13:26:59.175Z,101556.84
2019-06-01T13:29:29.736Z,101560.87
2019-06-01T13:32:00.985Z,101563.80
2019-06-01T13:34:34.276Z,101558.72
2019-06-01T13:37:05.646Z,101559.80
2019-06-01T13:39:36.204Z,101550.81
2019-06-01T13:42:07.309Z,101537.64
2019-06-01T13:44:37.617Z,101546.36
2019-06-01T13:47:08.342Z,101532.52
2019-06-01T13:49:40.156Z,101535.34
2019-06-01T13:52:11.791Z,101531.07
2019-06-01T13:54:44.061Z,101540.30
2019-06-01T13:57:15.330Z,101534.43
2019-06-01T13:59:46.913Z,101535.95
2019-06-01T14:02:18.733Z,101537.77
2019-06-01T14:04:49.760Z,101534.43
2019-06-01T14:07:19.801Z,101527.81
2019-06-01T14:09:51.987Z,101528.00
2019-06-01T14:12:21.531Z,101524.08
2019-06-01T14:14:51.555Z,101520.11
2019-06-01T14:17:21.533Z,101516.86
2019-06-01T14:19:51.760Z,101529.33
2019-06-01T14:22:21.723Z,101523.08
2019-06-01T14:25:06.941Z,101522.77
2019-06-01T14:27:23.331Z,101525.02
2019-06-01T14:29:54.434Z,101513.73
2019-06-01T14:32:24.404Z,101521.29
2019-06-01T14:34:54.916Z,101517.23
2019-06-01T14:37:24.909Z,101511.23
2019-06-01T14:39:55.004Z,101519.64
2019-06-01T14:42:25.031Z,101511.13
2019-06-01T14:44:55.992Z,101509.34
2019-06-01T14:47:25.849Z,101506.14
2019-06-01T14:49:55.815Z,101511.09
2019-06-01T14:52:25.740Z,101507.59
2019-06-01T14:54:55.954Z,101505.17
2019-06-01T14:57:25.899Z,101508.79
2019-06-01T14:59:56.141Z,101507.07
2019-06-01T15:02:26.261Z,101502.40
2019-06-01T15:04:56.417Z,101494.60
2019-06-01T15:07:28.213Z,101500.17
2019-06-01T15:09:58.466Z,101493.35
2019-06-01T15:12:30.265Z,101493.19
2019-06-01T15:15:00.182Z,101489.55
2019-06-01T15:17:30.156Z,101488.37
2019-06-01T15:20:00.069Z,101484.97
2019-06-01T15:22:29.988Z,101492.70
2019-06-01T15:24:59.852Z,101485.09
2019-06-01T15:27:29.736Z,101484.59
2019-06-01T15:29:59.645Z,101475.27
2019-06-01T15:32:29.591Z,101480.53
2019-06-01T15:34:59.828Z,101476.99
2019-06-01T15:37:30.004Z,101471.66
2019-06-01T15:39:59.949Z,101474.81
2019-06-01T15:42:29.863Z,101468.24
2019-06-01T15:44:59.879Z,101475.03
2019-06-01T15:47:29.838Z,101469.50
2019-06-01T15:50:02.623Z,101470.48
2019-06-01T15:52:31.677Z,101468.66
2019-06-01T15:55:02.883Z,101461.27
2019-06-01T15:57:32.948Z,101462.03
2019-06-01T16:00:03.192Z,101462.00
2019-06-01T16:02:33.073Z,101455.72
2019-06-01T16:05:03.367Z,101465.06
2019-06-01T16:07:33.270Z,101457.09
2019-06-01T16:10:07.563Z,101465.66
2019-06-01T16:12:34.783Z,101461.16
2019-06-01T16:15:05.288Z,101458.98
2019-06-01T16:17:35.173Z,101453.30
2019-06-01T16:20:06.096Z,101460.27
2019-06-01T16:22:36.149Z,101459.47
2019-06-01T16:25:06.385Z,101448.87
2019-06-01T16:27:36.393Z,101454.28
2019-06-01T16:30:06.898Z,101444.48
2019-06-01T16:32:39.407Z,101450.37
2019-06-01T16:35:09.858Z,101446.13
2019-06-01T16:37:39.769Z,101443.54
2019-06-01T16:40:11.007Z,101443.70
2019-06-01T16:42:40.953Z,101443.68
2019-06-01T16:45:11.704Z,101441.36
2019-06-01T16:47:41.651Z,101437.31
2019-06-01T16:50:12.121Z,101436.63
2019-06-01T16:52:42.425Z,101437.48
2019-06-01T16:55:13.637Z,101437.70
2019-06-01T16:57:43.548Z,101437.58
2019-06-01T17:00:15.694Z,101445.33
2019-06-01T17:02:45.747Z,101438.43
2019-06-01T17:05:16.984Z,101449.22
2019-06-01T17:07:47.022Z,101434.91
2019-06-01T17:10:26.056Z,101433.03
2019-06-01T17:12:49.191Z,101435.16
2019-06-01T17:15:19.487Z,101431.97
2019-06-01T17:17:49.506Z,101438.88
2019-06-01T17:20:48.309Z,101432.39
2019-06-01T17:23:26.626Z,101439.28
2019-06-01T17:25:50.288Z,101439.30
2019-06-01T17:28:20.171Z,101434.97
2019-06-01T17:30:50.323Z,101433.20
2019-06-01T17:33:20.441Z,101428.62
2019-06-01T17:35:50.491Z,101436.03
2019-06-01T17:38:20.507Z,101431.15
2019-06-01T17:40:50.782Z,101427.73
2019-06-01T17:43:20.693Z,101430.55
2019-06-01T17:45:50.639Z,101424.98
2019-06-01T17:48:26.593Z,101422.53
2019-06-01T17:50:52.511Z,101422.83
2019-06-01T17:53:22.452Z,101424.34
2019-06-01T17:55:52.483Z,101424.59
2019-06-01T17:58:22.679Z,101428.50
2019-06-01T18:00:52.836Z,101425.38
2019-06-01T18:03:22.836Z,101424.60
2019-06-01T18:05:52.958Z,101423.32
2019-06-01T18:08:22.951Z,101424.69
2019-06-01T18:10:55.049Z,101427.61
2019-06-01T18:13:25.271Z,101426.03
2019-06-01T18:15:55.280Z,101423.75
2019-06-01T18:18:25.308Z,101427.12
2019-06-01T18:20:55.302Z,101426.44
2019-06-01T18:23:25.448Z,101428.05
2019-06-01T18:25:55.598Z,101432.48
2019-06-01T18:28:25.599Z,101433.56
2019-06-01T18:30:55.655Z,101433.47
2019-06-01T18:33:25.772Z,101435.62
2019-06-01T18:35:56.012Z,101436.76
2019-06-01T18:38:25.980Z,101436.94
2019-06-01T18:41:08.655Z,101436.85
2019-06-01T18:43:27.718Z,101438.84
2019-06-01T18:45:58.372Z,101440.44
2019-06-01T18:48:28.441Z,101436.00
2019-06-01T18:50:58.358Z,101439.64
2019-06-01T18:53:28.510Z,101433.97
2019-06-01T18:55:58.435Z,101435.67
2019-06-01T18:58:28.423Z,101439.25
2019-06-01T19:00:59.486Z,101442.30
2019-06-01T19:03:29.572Z,101444.63
2019-06-01T19:05:59.596Z,101450.00
2019-06-01T19:08:29.558Z,101442.08
2019-06-01T19:10:59.429Z,101449.11
2019-06-01T19:13:29.417Z,101442.75
2019-06-01T19:15:59.342Z,101452.19
2019-06-01T19:18:29.339Z,101454.12
2019-06-01T19:20:59.239Z,101452.66
2019-06-01T19:23:29.208Z,101462.27
2019-06-01T19:25:59.100Z,101462.59
2019-06-01T19:28:29.045Z,101467.97
2019-06-01T19:30:58.961Z,101466.21
2019-06-01T19:33:28.907Z,101477.97
2019-06-01T19:36:00.838Z,101478.22
2019-06-01T19:38:34.234Z,101477.21
2019-06-01T19:41:04.398Z,101484.13
2019-06-01T19:43:34.325Z,101487.83
2019-06-01T19:46:04.321Z,101481.48
2019-06-01T19:48:34.284Z,101487.97
2019-06-01T19:51:04.230Z,101485.53
2019-06-01T19:53:34.151Z,101492.52
2019-06-01T19:56:04.180Z,101483.07
2019-06-01T19:58:34.109Z,101489.61
2019-06-01T20:01:04.123Z,101494.69
2019-06-01T20:03:34.123Z,101499.23
2019-06-01T20:06:04.186Z,101495.38
2019-06-01T20:08:34.137Z,101495.42
2019-06-01T20:11:04.179Z,101491.06
2019-06-01T20:13:34.192Z,101495.13
2019-06-01T20:16:04.096Z,101496.73
2019-06-01T20:18:34.036Z,101496.38
2019-06-01T20:21:06.342Z,101499.66
2019-06-01T20:23:36.551Z,101501.81
2019-06-01T20:26:06.713Z,101504.02
2019-06-01T20:28:36.712Z,101507.43
2019-06-01T20:31:06.632Z,101507.28
2019-06-01T20:33:36.533Z,101505.73
2019-06-01T20:36:06.594Z,101505.34
2019-06-01T20:38:36.585Z,101505.11
2019-06-01T20:41:06.530Z,101504.59
2019-06-01T20:43:36.446Z,101510.61
2019-06-01T20:46:06.420Z,101508.56
2019-06-01T20:48:36.401Z,101507.82
2019-06-01T20:51:06.532Z,101503.63
2019-06-01T20:53:36.540Z,101500.36
2019-06-01T20:56:06.550Z,101501.79
2019-06-01T20:58:36.603Z,101497.35
2019-06-01T21:01:11.007Z,101497.08
2019-06-01T21:03:40.958Z,101493.86
2019-06-01T21:06:10.854Z,101499.00
2019-06-01T21:08:40.736Z,101503.44
2019-06-01T21:11:10.874Z,101499.73
2019-06-01T21:13:40.790Z,101491.44
2019-06-01T21:16:10.714Z,101493.03
2019-06-01T21:18:41.021Z,101495.45
2019-06-01T21:21:11.290Z,101496.47
2019-06-01T21:23:41.241Z,101490.41
2019-06-01T21:26:11.159Z,101491.23
2019-06-01T21:28:41.080Z,101493.23
2019-06-01T21:31:11.332Z,101491.95
2019-06-01T21:33:41.380Z,101491.45
2019-06-01T21:36:11.287Z,101495.91
2019-06-01T21:38:41.252Z,101501.37
2019-06-01T21:41:11.581Z,101506.66
2019-06-01T21:43:41.573Z,101504.25
2019-06-01T21:46:11.639Z,101502.73
2019-06-01T21:48:41.898Z,101506.60
2019-06-01T21:51:11.818Z,101509.58
2019-06-01T21:53:41.686Z,101508.70
2019-06-01T21:56:11.602Z,101510.01
2019-06-01T21:58:44.739Z,101513.05
2019-06-01T22:01:14.957Z,101520.48
2019-06-01T22:03:44.897Z,101522.48
2019-06-01T22:06:15.221Z,101527.81
2019-06-01T22:08:52.589Z,101529.84
2019-06-01T22:11:21.581Z,101530.34
2019-06-01T22:13:51.809Z,101521.25
2019-06-01T22:16:21.761Z,101525.08
2019-06-01T22:18:51.772Z,101531.17
2019-06-01T22:21:21.850Z,101535.47
2019-06-01T22:23:52.145Z,101537.61
2019-06-01T22:26:22.207Z,101540.78
2019-06-01T22:28:52.457Z,101539.09
2019-06-01T22:31:22.558Z,101537.77
2019-06-01T22:33:52.622Z,101541.66
2019-06-01T22:36:22.795Z,101537.40
2019-06-01T22:38:53.295Z,101530.70
2019-06-01T22:41:23.934Z,101539.33
2019-06-01T22:43:54.091Z,101542.23
2019-06-01T22:46:26.806Z,101544.14
2019-06-01T22:48:57.235Z,101546.60
2019-06-01T22:51:27.291Z,101539.84
2019-06-01T22:53:57.239Z,101550.45
2019-06-01T22:56:27.565Z,101548.58
2019-06-01T22:58:57.525Z,101539.70
2019-06-01T23:01:28.815Z,101538.08
2019-06-01T23:03:59.014Z,101535.17
2019-06-01T23:06:29.299Z,101544.72
2019-06-01T23:08:59.216Z,101551.38
2019-06-01T23:11:29.630Z,101559.88
2019-06-01T23:13:59.623Z,101556.38
2019-06-01T23:16:29.814Z,101555.84
2019-06-01T23:18:59.721Z,101551.80
2019-06-01T23:21:32.031Z,101551.67
2019-06-01T23:24:02.437Z,101557.05
2019-06-01T23:26:32.578Z,101555.35
2019-06-01T23:29:02.704Z,101553.09
2019-06-01T23:31:32.688Z,101549.79
2019-06-01T23:34:02.691Z,101554.19
2019-06-01T23:36:38.750Z,101551.86
2019-06-01T23:39:08.982Z,101557.27
2019-06-01T23:44:12.166Z,101541.63
2019-06-01T23:46:39.727Z,101547.19
2019-06-01T23:49:09.642Z,101551.73
2019-06-01T23:51:42.882Z,101546.41
2019-06-01T23:54:12.819Z,101546.59
2019-06-01T23:56:42.847Z,101541.11
2019-06-01T23:59:12.760Z,101539.16
